createdAt,value
2022-08-11T00:01:30.750Z,27.92
2022-08-11T00:07:14.286Z,27.86
2022-08-11T00:12:59.052Z,27.78
2022-08-11T00:18:44.513Z,27.71
2022-08-11T00:24:32.226Z,27.65
2022-08-11T00:30:37.446Z,27.61
2022-08-11T00:36:25.547Z,27.54
2022-08-11T00:42:15.154Z,27.48
2022-08-11T00:48:05.307Z,27.41
2022-08-11T00:53:54.906Z,27.37
2022-08-11T00:59:51.982Z,27.28
2022-08-11T01:05:44.429Z,27.25
2022-08-11T01:11:55.187Z,27.2
2022-08-11T01:17:58.262Z,27.17
2022-08-11T01:23:54.296Z,27.14
2022-08-11T01:29:49.352Z,27.06
2022-08-11T01:35:40.970Z,26.99
2022-08-11T01:41:35.471Z,26.9
2022-08-11T01:47:26.291Z,26.85
2022-08-11T01:53:21.201Z,26.8
2022-08-11T01:59:09.379Z,26.75
2022-08-11T02:04:56.147Z,26.68
2022-08-11T02:10:50.325Z,26.62
2022-08-11T02:16:42.714Z,26.57
2022-08-11T02:22:31.180Z,26.52
2022-08-11T02:28:19.446Z,26.44
2022-08-11T02:34:06.839Z,26.38
2022-08-11T02:39:55.478Z,26.29
2022-08-11T02:45:41.999Z,26.24
2022-08-11T02:51:32.430Z,26.19
2022-08-11T02:57:20.565Z,26.14
2022-08-11T03:03:09.902Z,26.1
2022-08-11T03:09:00.263Z,26.04
2022-08-11T03:14:48.205Z,25.99
2022-08-11T03:20:38.126Z,25.95
2022-08-11T03:26:31.762Z,25.92
2022-08-11T03:32:20.138Z,25.87
2022-08-11T03:38:06.351Z,25.83
2022-08-11T03:43:58.617Z,25.78
2022-08-11T03:49:46.799Z,25.77
2022-08-11T03:55:37.022Z,25.71
2022-08-11T04:01:31.808Z,25.62
2022-08-11T04:07:32.383Z,25.57
2022-08-11T04:13:35.653Z,25.56
2022-08-11T04:19:30.039Z,25.55
2022-08-11T04:25:28.858Z,25.5
2022-08-11T04:31:43.957Z,25.48
2022-08-11T04:37:37.381Z,25.44
2022-08-11T04:43:57.239Z,24.65
2022-08-11T04:50:00.923Z,24.11
2022-08-11T04:55:51.771Z,23.78
2022-08-11T05:01:39.892Z,23.47
2022-08-11T05:07:35.067Z,23.26
2022-08-11T05:13:27.962Z,23.08
2022-08-11T05:19:16.087Z,23.03
2022-08-11T05:25:04.286Z,22.97
2022-08-11T05:30:50.324Z,22.96
2022-08-11T05:36:37.259Z,23.04
2022-08-11T05:42:30.025Z,23.16
2022-08-11T05:48:14.254Z,23.32
2022-08-11T05:53:59.699Z,23.41
2022-08-11T05:59:49.711Z,23.53
2022-08-11T06:05:38.616Z,23.63
2022-08-11T06:11:43.489Z,23.75
2022-08-11T06:17:27.045Z,23.85
2022-08-11T06:23:21.752Z,23.99
2022-08-11T06:29:07.495Z,24.1
2022-08-11T06:35:04.615Z,24.24
2022-08-11T06:40:51.127Z,24.39
2022-08-11T06:46:34.942Z,24.52
2022-08-11T06:52:34.555Z,24.72
2022-08-11T06:58:18.587Z,24.98
2022-08-11T07:04:04.713Z,25.19
2022-08-11T07:09:57.669Z,25.38
2022-08-11T07:16:09.174Z,25.61
2022-08-11T07:22:00.700Z,25.86
2022-08-11T07:27:46.077Z,26.09
2022-08-11T07:34:06.297Z,26.3
2022-08-11T07:39:36.675Z,26.59
2022-08-11T07:45:23.122Z,26.78
2022-08-11T07:51:06.872Z,26.97
2022-08-11T07:56:55.680Z,27.15
2022-08-11T08:02:54.200Z,27.37
2022-08-11T08:08:40.137Z,27.55
2022-08-11T08:14:24.646Z,27.74
2022-08-11T08:20:10.614Z,27.91
2022-08-11T08:25:54.186Z,28.09
2022-08-11T08:31:37.986Z,28.27
2022-08-11T08:37:46.526Z,28.46
2022-08-11T08:43:27.562Z,28.66
2022-08-11T08:49:19.119Z,28.83
2022-08-11T08:55:04.447Z,29
2022-08-11T09:00:50.164Z,29.12
2022-08-11T09:06:34.287Z,29.31
2022-08-11T09:12:36.381Z,29.46
2022-08-11T09:18:19.988Z,29.64
2022-08-11T09:24:11.372Z,29.79
2022-08-11T09:30:08.843Z,30.01
2022-08-11T09:35:53.129Z,30.14
2022-08-11T09:41:55.882Z,30.29
2022-08-11T09:47:42.635Z,30.5
2022-08-11T09:53:35.652Z,30.63
2022-08-11T09:59:28.060Z,30.79
2022-08-11T10:05:14.382Z,30.92
2022-08-11T10:10:58.170Z,31.03
2022-08-11T10:16:42.077Z,31.18
2022-08-11T10:22:26.956Z,31.24
2022-08-11T10:28:17.401Z,31.35
2022-08-11T10:34:20.154Z,31.52
2022-08-11T10:40:13.923Z,31.72
2022-08-11T10:45:57.612Z,31.84
2022-08-11T10:51:50.340Z,31.98
2022-08-11T10:57:39.999Z,32.16
2022-08-11T11:03:35.684Z,32.27
2022-08-11T11:09:22.483Z,32.39
2022-08-11T11:15:08.408Z,32.48
2022-08-11T11:21:03.744Z,32.6
2022-08-11T11:26:51.338Z,32.7
2022-08-11T11:32:40.155Z,32.83
2022-08-11T11:38:30.767Z,32.99
2022-08-11T11:44:15.575Z,33.11
2022-08-11T11:49:59.773Z,33.12
2022-08-11T11:55:43.895Z,33.19
2022-08-11T12:01:27.797Z,33.3
2022-08-11T12:07:11.962Z,33.39
2022-08-11T12:12:55.868Z,33.5
2022-08-11T12:18:40.546Z,33.62
2022-08-11T12:24:28.519Z,33.75
2022-08-11T12:30:13.162Z,33.91
2022-08-11T12:36:00.874Z,34
2022-08-11T12:41:45.730Z,34.08
2022-08-11T12:47:32.300Z,34.16
2022-08-11T12:53:16.218Z,34.25
2022-08-11T12:59:01.495Z,34.42
2022-08-11T13:04:45.783Z,34.58
2022-08-11T13:10:34.156Z,34.79
2022-08-11T13:16:22.647Z,34.89
2022-08-11T13:22:07.084Z,34.98
2022-08-11T13:33:41.583Z,35.22
2022-08-11T13:39:26.627Z,35.34
2022-08-11T13:45:11.851Z,35.45
2022-08-11T13:50:58.171Z,35.56
2022-08-11T13:56:43.900Z,35.64
2022-08-11T14:02:28.907Z,35.72
2022-08-11T14:08:33.491Z,35.83
2022-08-11T14:14:22.130Z,35.93
2022-08-11T14:20:14.106Z,35.95
2022-08-11T14:26:12.390Z,36.01
2022-08-11T14:31:56.746Z,36.06
2022-08-11T14:37:40.083Z,36.12
2022-08-11T14:44:05.817Z,36.18
2022-08-11T14:49:28.923Z,36.19
2022-08-11T14:55:13.081Z,36.23
2022-08-11T15:00:57.580Z,36.23
2022-08-11T15:06:42.447Z,36.27
2022-08-11T15:12:31.084Z,36.3
2022-08-11T15:18:16.895Z,36.34
2022-08-11T15:24:00.639Z,36.58
2022-08-11T15:29:45.363Z,36.85
2022-08-11T15:35:33.589Z,37.17
2022-08-11T15:41:25.069Z,37.5
2022-08-11T15:47:09.321Z,37.81
2022-08-11T15:52:56.007Z,38.11
2022-08-11T15:58:42.322Z,38.45
2022-08-11T16:04:27.210Z,38.71
2022-08-11T16:10:17.215Z,38.99
2022-08-11T16:16:02.876Z,39.24
2022-08-11T16:21:47.847Z,39.52
2022-08-11T16:27:32.214Z,39.75
2022-08-11T16:33:23.011Z,40
2022-08-11T16:39:21.820Z,40.28
2022-08-11T16:45:06.184Z,40.51
2022-08-11T16:50:50.158Z,40.78
2022-08-11T16:56:34.895Z,41.01
2022-08-11T17:02:18.990Z,41.45
2022-08-11T17:08:04.203Z,41.86
2022-08-11T17:13:49.905Z,42.29
2022-08-11T17:20:39.112Z,42.85
2022-08-11T17:25:59.536Z,43.34
2022-08-11T17:31:41.538Z,43.77
2022-08-11T17:37:26.732Z,43.92
2022-08-11T17:43:10.670Z,43.92
2022-08-11T17:48:55.486Z,43.82
2022-08-11T17:54:41.669Z,43.63
2022-08-11T18:00:27.011Z,42.17
2022-08-11T18:06:13.205Z,40.31
2022-08-11T18:12:07.316Z,39.08
2022-08-11T18:17:54.079Z,38.45
2022-08-11T18:23:40.777Z,38.14
2022-08-11T18:29:30.668Z,37.8
2022-08-11T18:35:24.082Z,37.42
2022-08-11T18:41:09.745Z,37.09
2022-08-11T18:46:56.700Z,36.75
2022-08-11T18:52:45.303Z,36.43
2022-08-11T18:58:30.697Z,36.12
2022-08-11T19:04:17.169Z,35.83
2022-08-11T19:10:03.331Z,35.54
2022-08-11T19:15:49.784Z,35.27
2022-08-11T19:21:33.770Z,35.04
2022-08-11T19:27:18.430Z,34.79
2022-08-11T19:33:02.001Z,34.55
2022-08-11T19:38:45.463Z,34.33
2022-08-11T19:44:30.163Z,34.14
2022-08-11T19:50:17.583Z,33.93
2022-08-11T19:56:08.107Z,33.74
2022-08-11T20:02:01.109Z,33.55
2022-08-11T20:07:57.082Z,33.28
2022-08-11T20:13:42.629Z,32.72
2022-08-11T20:19:54.682Z,32.24
2022-08-11T20:25:36.034Z,31.86
2022-08-11T20:31:20.931Z,31.55
2022-08-11T20:37:05.659Z,31.25
2022-08-11T20:42:50.676Z,31.06
2022-08-11T20:48:35.472Z,30.84
2022-08-11T20:54:19.682Z,30.67
2022-08-11T21:00:38.592Z,30.45
2022-08-11T21:06:31.732Z,30.28
2022-08-11T21:12:18.817Z,30.08
2022-08-11T21:18:06.574Z,29.78
2022-08-11T21:23:51.104Z,29.59
2022-08-11T21:29:35.663Z,29.34
2022-08-11T21:35:19.335Z,29.13
2022-08-11T21:41:03.759Z,28.87
2022-08-11T21:46:48.288Z,28.62
2022-08-11T21:52:31.818Z,28.41
2022-08-11T21:58:15.534Z,28.18
2022-08-11T22:04:02.066Z,27.98
2022-08-11T22:09:47.395Z,27.84
2022-08-11T22:15:31.075Z,27.7
2022-08-11T22:21:15.965Z,27.52
2022-08-11T22:27:18.251Z,27.69
2022-08-11T22:33:02.164Z,27.85
2022-08-11T22:38:46.656Z,27.99
2022-08-11T22:44:30.066Z,28.05
2022-08-11T22:50:13.806Z,28.1
2022-08-11T22:55:57.266Z,28.13
2022-08-11T23:01:54.869Z,28.15
2022-08-11T23:07:49.625Z,28.17
2022-08-11T23:13:34.693Z,28.19
2022-08-11T23:20:03.727Z,28.15
2022-08-11T23:25:21.813Z,28.14
2022-08-11T23:31:07.042Z,28.09
2022-08-11T23:36:50.607Z,28.06
2022-08-11T23:42:35.587Z,28.05
2022-08-11T23:48:23.142Z,28.02
2022-08-11T23:54:07.555Z,27.97
2022-08-11T23:59:51.370Z,27.91
